sensor_id;sensor_type;location;lat;lon;timestamp;pressure;altitude;pressure_sealevel;temperature;humidity
78625;BME280;67944;0.000;0.000;2024-02-26T00:00:31;98764.38;;;20.13;33.57
78625;BME280;67944;0.000;0.000;2024-02-26T00:02:57;98768.03;;;20.12;34.05
78625;BME280;67944;0.000;0.000;2024-02-26T00:05:22;98752.19;;;20.12;33.89
78625;BME280;67944;0.000;0.000;2024-02-26T00:07:48;98744.47;;;20.10;33.78
78625;BME280;67944;0.000;0.000;2024-02-26T00:10:14;98756.66;;;20.11;33.83
78625;BME280;67944;0.000;0.000;2024-02-26T00:12:40;98749.75;;;20.10;33.77
78625;BME280;67944;0.000;0.000;2024-02-26T00:15:09;98754.00;;;20.11;33.22
78625;BME280;67944;0.000;0.000;2024-02-26T00:17:35;98756.66;;;20.11;33.54
78625;BME280;67944;0.000;0.000;2024-02-26T00:20:02;98756.66;;;20.11;33.38
78625;BME280;67944;0.000;0.000;2024-02-26T00:22:30;98755.03;;;20.10;33.68
78625;BME280;67944;0.000;0.000;2024-02-26T00:24:55;98752.19;;;20.12;33.79
78625;BME280;67944;0.000;0.000;2024-02-26T00:27:21;98745.50;;;20.09;33.27
78625;BME280;67944;0.000;0.000;2024-02-26T00:29:46;98753.41;;;20.09;34.03
78625;BME280;67944;0.000;0.000;2024-02-26T00:32:12;98758.72;;;20.09;33.77
78625;BME280;67944;0.000;0.000;2024-02-26T00:34:37;98755.25;;;20.09;33.36
78625;BME280;67944;0.000;0.000;2024-02-26T00:37:03;98735.94;;;20.08;33.83
78625;BME280;67944;0.000;0.000;2024-02-26T00:39:28;98725.38;;;20.08;33.35
78625;BME280;67944;0.000;0.000;2024-02-26T00:41:54;98736.75;;;20.09;33.68
78625;BME280;67944;0.000;0.000;2024-02-26T00:44:19;98735.94;;;20.08;34.02
78625;BME280;67944;0.000;0.000;2024-02-26T00:46:45;98726.19;;;20.09;34.17
78625;BME280;67944;0.000;0.000;2024-02-26T00:49:10;98743.06;;;20.08;33.86
78625;BME280;67944;0.000;0.000;2024-02-26T00:51:36;98753.63;;;20.08;33.62
78625;BME280;67944;0.000;0.000;2024-02-26T00:54:02;98755.47;;;20.07;34.12
78625;BME280;67944;0.000;0.000;2024-02-26T00:56:27;98746.50;;;20.08;34.04
78625;BME280;67944;0.000;0.000;2024-02-26T00:58:52;98746.50;;;20.08;34.08
78625;BME280;67944;0.000;0.000;2024-02-26T01:01:18;98744.91;;;20.07;33.44
78625;BME280;67944;0.000;0.000;2024-02-26T01:03:43;98756.28;;;20.08;34.13
78625;BME280;67944;0.000;0.000;2024-02-26T01:06:09;98752.03;;;20.07;34.14
78625;BME280;67944;0.000;0.000;2024-02-26T01:08:35;98758.13;;;20.07;33.79
78625;BME280;67944;0.000;0.000;2024-02-26T01:11:01;98759.13;;;20.06;34.11
78625;BME280;67944;0.000;0.000;2024-02-26T01:13:26;98760.75;;;20.07;33.37
78625;BME280;67944;0.000;0.000;2024-02-26T01:15:52;98763.41;;;20.07;33.82
78625;BME280;67944;0.000;0.000;2024-02-26T01:18:17;98764.41;;;20.06;33.34
78625;BME280;67944;0.000;0.000;2024-02-26T01:20:43;98772.34;;;20.06;33.37
78625;BME280;67944;0.000;0.000;2024-02-26T01:23:08;98771.53;;;20.06;33.90
78625;BME280;67944;0.000;0.000;2024-02-26T01:25:33;98768.91;;;20.06;33.40
78625;BME280;67944;0.000;0.000;2024-02-26T01:27:59;98772.34;;;20.06;34.10
78625;BME280;67944;0.000;0.000;2024-02-26T01:30:24;98774.19;;;20.06;34.15
78625;BME280;67944;0.000;0.000;2024-02-26T01:32:50;98777.63;;;20.06;34.19
78625;BME280;67944;0.000;0.000;2024-02-26T01:35:15;98778.66;;;20.05;33.93
78625;BME280;67944;0.000;0.000;2024-02-26T01:37:42;98783.13;;;20.05;33.97
78625;BME280;67944;0.000;0.000;2024-02-26T01:40:08;98783.13;;;20.05;34.04
78625;BME280;67944;0.000;0.000;2024-02-26T01:42:38;98786.81;;;20.04;33.63
78625;BME280;67944;0.000;0.000;2024-02-26T01:45:05;98783.13;;;20.05;33.90
78625;BME280;67944;0.000;0.000;2024-02-26T01:47:32;98788.41;;;20.05;33.40
78625;BME280;67944;0.000;0.000;2024-02-26T01:49:58;98785.78;;;20.05;33.73
78625;BME280;67944;0.000;0.000;2024-02-26T01:52:23;98791.88;;;20.05;33.37
78625;BME280;67944;0.000;0.000;2024-02-26T01:54:50;98801.63;;;20.05;33.77
78625;BME280;67944;0.000;0.000;2024-02-26T01:57:16;98800.81;;;20.04;33.84
78625;BME280;67944;0.000;0.000;2024-02-26T01:59:44;98809.56;;;20.05;33.53
78625;BME280;67944;0.000;0.000;2024-02-26T02:02:11;98808.53;;;20.06;34.16
78625;BME280;67944;0.000;0.000;2024-02-26T02:04:39;98808.75;;;20.04;33.73
78625;BME280;67944;0.000;0.000;2024-02-26T02:07:04;98800.59;;;20.06;33.40
78625;BME280;67944;0.000;0.000;2024-02-26T02:09:30;98801.41;;;20.06;33.89
78625;BME280;67944;0.000;0.000;2024-02-26T02:11:58;98810.16;;;20.07;33.84
78625;BME280;67944;0.000;0.000;2024-02-26T02:14:25;98816.84;;;20.09;33.49
78625;BME280;67944;0.000;0.000;2024-02-26T02:16:50;98817.66;;;20.10;33.75
78625;BME280;67944;0.000;0.000;2024-02-26T02:19:16;98810.31;;;20.12;33.54
78625;BME280;67944;0.000;0.000;2024-02-26T02:21:41;98815.38;;;20.13;33.87
78625;BME280;67944;0.000;0.000;2024-02-26T02:24:07;98829.16;;;20.15;33.51
78625;BME280;67944;0.000;0.000;2024-02-26T02:26:32;98825.50;;;20.16;34.09
78625;BME280;67944;0.000;0.000;2024-02-26T02:29:00;98815.53;;;20.18;34.18
78625;BME280;67944;0.000;0.000;2024-02-26T02:31:26;98818.75;;;20.20;33.76
78625;BME280;67944;0.000;0.000;2024-02-26T02:33:52;98813.25;;;20.22;33.75
78625;BME280;67944;0.000;0.000;2024-02-26T02:36:17;98813.03;;;20.24;33.82
78625;BME280;67944;0.000;0.000;2024-02-26T02:38:50;98822.59;;;20.25;34.11
78625;BME280;67944;0.000;0.000;2024-02-26T02:41:16;98817.91;;;20.27;33.41
78625;BME280;67944;0.000;0.000;2024-02-26T02:43:42;98829.66;;;20.31;34.24
78625;BME280;67944;0.000;0.000;2024-02-26T02:46:07;98828.63;;;20.32;33.36
78625;BME280;67944;0.000;0.000;2024-02-26T02:48:33;98829.22;;;20.34;33.82
78625;BME280;67944;0.000;0.000;2024-02-26T02:50:58;98835.09;;;20.36;33.74
78625;BME280;67944;0.000;0.000;2024-02-26T02:53:24;98819.84;;;20.38;34.14
78625;BME280;67944;0.000;0.000;2024-02-26T02:55:49;98818.81;;;20.39;33.96
78625;BME280;67944;0.000;0.000;2024-02-26T02:58:15;98833.44;;;20.41;33.52
78625;BME280;67944;0.000;0.000;2024-02-26T03:00:40;98828.75;;;20.43;33.96
78625;BME280;67944;0.000;0.000;2024-02-26T03:03:06;98833.81;;;20.45;33.88
78625;BME280;67944;0.000;0.000;2024-02-26T03:05:31;98830.75;;;20.48;33.68
78625;BME280;67944;0.000;0.000;2024-02-26T03:07:57;98836.63;;;20.50;33.93
78625;BME280;67944;0.000;0.000;2024-02-26T03:10:22;98839.84;;;20.52;33.81
78625;BME280;67944;0.000;0.000;2024-02-26T03:12:49;98834.34;;;20.53;33.25
78625;BME280;67944;0.000;0.000;2024-02-26T03:15:15;98838.41;;;20.56;33.70
78625;BME280;67944;0.000;0.000;2024-02-26T03:17:40;98837.34;;;20.57;33.67
78625;BME280;67944;0.000;0.000;2024-02-26T03:20:06;98830.00;;;20.59;33.75
78625;BME280;67944;0.000;0.000;2024-02-26T03:22:34;98831.41;;;20.62;33.59
78625;BME280;67944;0.000;0.000;2024-02-26T03:24:59;98839.94;;;20.64;33.19
78625;BME280;67944;0.000;0.000;2024-02-26T03:27:24;98840.75;;;20.64;33.81
78625;BME280;67944;0.000;0.000;2024-02-26T03:29:50;98839.50;;;20.67;33.19
78625;BME280;67944;0.000;0.000;2024-02-26T03:32:16;98846.41;;;20.68;33.92
78625;BME280;67944;0.000;0.000;2024-02-26T03:34:41;98845.16;;;20.70;33.24
78625;BME280;67944;0.000;0.000;2024-02-26T03:37:07;98848.59;;;20.71;33.31
78625;BME280;67944;0.000;0.000;2024-02-26T03:39:34;98840.47;;;20.72;33.47
78625;BME280;67944;0.000;0.000;2024-02-26T03:42:00;98850.59;;;20.75;33.74
78625;BME280;67944;0.000;0.000;2024-02-26T03:44:25;98840.63;;;20.77;33.10
78625;BME280;67944;0.000;0.000;2024-02-26T03:46:51;98840.63;;;20.77;33.81
78625;BME280;67944;0.000;0.000;2024-02-26T03:49:16;98847.28;;;20.80;33.48
78625;BME280;67944;0.000;0.000;2024-02-26T03:51:42;98839.13;;;20.81;33.21
78625;BME280;67944;0.000;0.000;2024-02-26T03:54:07;98840.72;;;20.82;33.80
78625;BME280;67944;0.000;0.000;2024-02-26T03:56:32;98841.31;;;20.84;33.46
78625;BME280;67944;0.000;0.000;2024-02-26T03:58:58;98853.53;;;20.85;33.22
78625;BME280;67944;0.000;0.000;2024-02-26T04:01:25;98844.56;;;20.86;33.35
78625;BME280;67944;0.000;0.000;2024-02-26T04:03:50;98852.28;;;20.88;33.28
78625;BME280;67944;0.000;0.000;2024-02-26T04:06:18;98846.78;;;20.90;33.56
78625;BME280;67944;0.000;0.000;2024-02-26T04:08:46;98844.13;;;20.90;33.55
78625;BME280;67944;0.000;0.000;2024-02-26T04:11:11;98839.84;;;20.88;33.18
78625;BME280;67944;0.000;0.000;2024-02-26T04:13:37;98845.59;;;20.85;33.20
78625;BME280;67944;0.000;0.000;2024-02-26T04:16:07;98836.56;;;20.75;33.83
78625;BME280;67944;0.000;0.000;2024-02-26T04:18:32;98839.13;;;20.63;34.02
78625;BME280;67944;0.000;0.000;2024-02-26T04:20:58;98831.34;;;20.50;34.15
78625;BME280;67944;0.000;0.000;2024-02-26T04:23:24;98829.78;;;20.36;34.31
78625;BME280;67944;0.000;0.000;2024-02-26T04:25:50;98822.81;;;20.23;34.29
78625;BME280;67944;0.000;0.000;2024-02-26T04:28:15;98828.22;;;20.10;34.48
78625;BME280;67944;0.000;0.000;2024-02-26T04:30:41;98826.69;;;19.96;34.38
78625;BME280;67944;0.000;0.000;2024-02-26T04:33:07;98826.59;;;19.84;35.06
78625;BME280;67944;0.000;0.000;2024-02-26T04:35:32;98828.47;;;19.77;34.84
78625;BME280;67944;0.000;0.000;2024-02-26T04:38:00;98829.31;;;19.71;35.08
78625;BME280;67944;0.000;0.000;2024-02-26T04:40:25;98824.09;;;19.64;34.88
78625;BME280;67944;0.000;0.000;2024-02-26T04:42:51;98818.84;;;19.58;35.15
78625;BME280;67944;0.000;0.000;2024-02-26T04:45:17;98815.63;;;19.49;35.23
78625;BME280;67944;0.000;0.000;2024-02-26T04:47:42;98817.50;;;19.42;35.47
78625;BME280;67944;0.000;0.000;2024-02-26T04:50:08;98815.72;;;19.36;36.30
78625;BME280;67944;0.000;0.000;2024-02-26T04:52:33;98812.09;;;19.30;35.65
78625;BME280;67944;0.000;0.000;2024-02-26T04:54:59;98798.53;;;19.27;35.94
78625;BME280;67944;0.000;0.000;2024-02-26T04:57:25;98801.31;;;19.32;36.39
78625;BME280;67944;0.000;0.000;2024-02-26T04:59:51;98802.69;;;19.41;36.34
78625;BME280;67944;0.000;0.000;2024-02-26T05:02:17;98805.47;;;19.52;35.89
78625;BME280;67944;0.000;0.000;2024-02-26T05:04:43;98804.22;;;19.62;35.66
78625;BME280;67944;0.000;0.000;2024-02-26T05:07:08;98802.91;;;19.71;35.83
78625;BME280;67944;0.000;0.000;2024-02-26T05:09:34;98807.72;;;19.80;36.30
78625;BME280;67944;0.000;0.000;2024-02-26T05:11:59;98801.97;;;19.90;36.25
78625;BME280;67944;0.000;0.000;2024-02-26T05:14:25;98804.31;;;19.98;35.73
78625;BME280;67944;0.000;0.000;2024-02-26T05:16:51;98798.56;;;20.08;35.21
78625;BME280;67944;0.000;0.000;2024-02-26T05:19:16;98801.72;;;20.16;35.98
78625;BME280;67944;0.000;0.000;2024-02-26T05:21:41;98802.47;;;20.24;35.57
78625;BME280;67944;0.000;0.000;2024-02-26T05:24:09;98804.03;;;20.31;35.32
78625;BME280;67944;0.000;0.000;2024-02-26T05:26:34;98808.47;;;20.37;35.20
78625;BME280;67944;0.000;0.000;2024-02-26T05:29:00;98806.34;;;20.46;35.15
78625;BME280;67944;0.000;0.000;2024-02-26T05:31:26;98812.59;;;20.51;35.12
78625;BME280;67944;0.000;0.000;2024-02-26T05:33:52;98807.47;;;20.57;35.71
78625;BME280;67944;0.000;0.000;2024-02-26T05:36:20;98803.34;;;20.61;35.60
78625;BME280;67944;0.000;0.000;2024-02-26T05:38:46;98811.41;;;20.66;35.07
78625;BME280;67944;0.000;0.000;2024-02-26T05:41:12;98804.66;;;20.70;34.88
78625;BME280;67944;0.000;0.000;2024-02-26T05:43:37;98807.69;;;20.73;35.11
78625;BME280;67944;0.000;0.000;2024-02-26T05:46:03;98807.03;;;20.78;34.84
78625;BME280;67944;0.000;0.000;2024-02-26T05:48:28;98808.97;;;20.82;35.35
78625;BME280;67944;0.000;0.000;2024-02-26T05:50:54;98810.16;;;20.86;34.99
78625;BME280;67944;0.000;0.000;2024-02-26T05:53:19;98809.72;;;20.90;34.90
78625;BME280;67944;0.000;0.000;2024-02-26T05:55:45;98813.53;;;20.94;35.15
78625;BME280;67944;0.000;0.000;2024-02-26T05:58:10;98809.66;;;20.96;34.78
78625;BME280;67944;0.000;0.000;2024-02-26T06:00:35;98815.31;;;21.00;35.37
78625;BME280;67944;0.000;0.000;2024-02-26T06:03:01;98820.34;;;21.01;34.74
78625;BME280;67944;0.000;0.000;2024-02-26T06:05:27;98821.97;;;21.02;35.11
78625;BME280;67944;0.000;0.000;2024-02-26T06:07:53;98826.03;;;21.05;34.93
78625;BME280;67944;0.000;0.000;2024-02-26T06:10:20;98831.69;;;21.08;34.88
78625;BME280;67944;0.000;0.000;2024-02-26T06:12:47;98832.84;;;21.12;34.66
78625;BME280;67944;0.000;0.000;2024-02-26T06:15:12;98843.81;;;21.16;34.98
78625;BME280;67944;0.000;0.000;2024-02-26T06:17:38;98837.25;;;21.18;34.96
78625;BME280;67944;0.000;0.000;2024-02-26T06:20:03;98842.16;;;21.22;34.87
78625;BME280;67944;0.000;0.000;2024-02-26T06:22:31;98851.22;;;21.26;34.87
78625;BME280;67944;0.000;0.000;2024-02-26T06:24:57;98853.66;;;21.27;35.22
78625;BME280;67944;0.000;0.000;2024-02-26T06:27:23;98855.06;;;21.30;34.89
78625;BME280;67944;0.000;0.000;2024-02-26T06:29:49;98864.41;;;21.32;34.81
78625;BME280;67944;0.000;0.000;2024-02-26T06:32:14;98866.81;;;21.34;34.84
78625;BME280;67944;0.000;0.000;2024-02-26T06:34:40;98863.97;;;21.35;34.69
78625;BME280;67944;0.000;0.000;2024-02-26T06:37:08;98873.06;;;21.39;34.59
78625;BME280;67944;0.000;0.000;2024-02-26T06:39:33;98873.66;;;21.41;34.78
78625;BME280;67944;0.000;0.000;2024-02-26T06:41:59;98882.19;;;21.43;35.14
78625;BME280;67944;0.000;0.000;2024-02-26T06:44:27;98889.66;;;21.46;34.97
78625;BME280;67944;0.000;0.000;2024-02-26T06:46:58;98888.63;;;21.47;34.90
78625;BME280;67944;0.000;0.000;2024-02-26T06:49:24;98902.47;;;21.49;34.78
78625;BME280;67944;0.000;0.000;2024-02-26T06:51:49;98905.69;;;21.51;34.67
78625;BME280;67944;0.000;0.000;2024-02-26T06:54:15;98912.41;;;21.54;34.98
78625;BME280;67944;0.000;0.000;2024-02-26T06:56:40;98916.66;;;21.55;34.60
78625;BME280;67944;0.000;0.000;2024-02-26T06:59:06;98914.81;;;21.55;34.67
78625;BME280;67944;0.000;0.000;2024-02-26T07:01:31;98918.06;;;21.58;34.82
78625;BME280;67944;0.000;0.000;2024-02-26T07:03:57;98930.28;;;21.59;34.79
78625;BME280;67944;0.000;0.000;2024-02-26T07:06:22;98931.66;;;21.61;34.82
78625;BME280;67944;0.000;0.000;2024-02-26T07:08:48;98933.28;;;21.62;34.83
78625;BME280;67944;0.000;0.000;2024-02-26T07:11:13;98943.41;;;21.65;34.90
78625;BME280;67944;0.000;0.000;2024-02-26T07:13:39;98938.69;;;21.67;34.74
78625;BME280;67944;0.000;0.000;2024-02-26T07:16:05;98935.84;;;21.69;34.68
78625;BME280;67944;0.000;0.000;2024-02-26T07:18:30;98932.16;;;21.70;34.65
78625;BME280;67944;0.000;0.000;2024-02-26T07:20:56;98938.03;;;21.72;34.83
78625;BME280;67944;0.000;0.000;2024-02-26T07:23:21;98934.34;;;21.73;34.61
78625;BME280;67944;0.000;0.000;2024-02-26T07:25:47;98945.75;;;21.73;34.86
78625;BME280;67944;0.000;0.000;2024-02-26T07:28:14;98936.78;;;21.74;34.88
78625;BME280;67944;0.000;0.000;2024-02-26T07:30:40;98940.81;;;21.77;35.01
78625;BME280;67944;0.000;0.000;2024-02-26T07:33:05;98940.59;;;21.78;34.95
78625;BME280;67944;0.000;0.000;2024-02-26T07:35:31;98947.31;;;21.81;34.93
78625;BME280;67944;0.000;0.000;2024-02-26T07:37:58;98938.31;;;21.82;34.68
78625;BME280;67944;0.000;0.000;2024-02-26T07:40:24;98948.91;;;21.82;35.06
78625;BME280;67944;0.000;0.000;2024-02-26T07:42:49;98952.97;;;21.84;34.86
78625;BME280;67944;0.000;0.000;2024-02-26T07:45:15;98949.28;;;21.85;34.94
78625;BME280;67944;0.000;0.000;2024-02-26T07:47:40;98955.41;;;21.86;35.37
78625;BME280;67944;0.000;0.000;2024-02-26T07:50:07;98959.63;;;21.87;35.06
78625;BME280;67944;0.000;0.000;2024-02-26T07:52:33;98963.09;;;21.87;35.11
78625;BME280;67944;0.000;0.000;2024-02-26T07:54:58;98962.06;;;21.88;35.08
78625;BME280;67944;0.000;0.000;2024-02-26T07:57:24;98964.72;;;21.88;34.91
78625;BME280;67944;0.000;0.000;2024-02-26T07:59:49;98960.00;;;21.90;35.10
78625;BME280;67944;0.000;0.000;2024-02-26T08:02:16;98956.53;;;21.90;35.22
78625;BME280;67944;0.000;0.000;2024-02-26T08:04:41;98958.97;;;21.92;35.17
78625;BME280;67944;0.000;0.000;2024-02-26T08:07:06;98955.50;;;21.91;34.99
78625;BME280;67944;0.000;0.000;2024-02-26T08:09:32;98964.25;;;21.92;35.07
78625;BME280;67944;0.000;0.000;2024-02-26T08:11:58;98959.78;;;21.92;34.89
78625;BME280;67944;0.000;0.000;2024-02-26T08:14:24;98965.06;;;21.92;35.36
78625;BME280;67944;0.000;0.000;2024-02-26T08:16:49;98960.59;;;21.93;35.04
78625;BME280;67944;0.000;0.000;2024-02-26T08:19:15;98967.50;;;21.94;35.19
78625;BME280;67944;0.000;0.000;2024-02-26T08:21:41;98972.81;;;21.94;35.26
78625;BME280;67944;0.000;0.000;2024-02-26T08:24:07;98972.81;;;21.94;35.44
78625;BME280;67944;0.000;0.000;2024-02-26T08:26:32;98972.59;;;21.95;35.24
78625;BME280;67944;0.000;0.000;2024-02-26T08:28:58;98970.75;;;21.96;35.41
78625;BME280;67944;0.000;0.000;2024-02-26T08:31:23;98977.88;;;21.95;35.23
78625;BME280;67944;0.000;0.000;2024-02-26T08:33:49;98973.38;;;21.96;35.36
78625;BME280;67944;0.000;0.000;2024-02-26T08:36:14;98968.91;;;21.96;35.30
78625;BME280;67944;0.000;0.000;2024-02-26T08:38:40;98979.28;;;21.98;35.31
78625;BME280;67944;0.000;0.000;2024-02-26T08:41:05;98981.72;;;21.99;35.30
78625;BME280;67944;0.000;0.000;2024-02-26T08:43:31;98979.28;;;21.98;35.20
78625;BME280;67944;0.000;0.000;2024-02-26T08:45:57;98975.81;;;21.97;35.61
78625;BME280;67944;0.000;0.000;2024-02-26T08:48:22;98980.91;;;21.99;35.42
78625;BME280;67944;0.000;0.000;2024-02-26T08:50:48;98969.47;;;21.98;35.28
78625;BME280;67944;0.000;0.000;2024-02-26T08:53:13;98967.66;;;21.99;35.42
78625;BME280;67944;0.000;0.000;2024-02-26T08:55:39;98965.22;;;21.97;35.33
78625;BME280;67944;0.000;0.000;2024-02-26T08:58:04;98973.16;;;21.97;35.48
78625;BME280;67944;0.000;0.000;2024-02-26T09:00:30;98969.47;;;21.98;35.43
78625;BME280;67944;0.000;0.000;2024-02-26T09:02:56;98978.25;;;21.99;35.42
78625;BME280;67944;0.000;0.000;2024-02-26T09:05:21;98985.38;;;21.98;35.49
78625;BME280;67944;0.000;0.000;2024-02-26T09:07:47;98986.41;;;21.97;35.48
78625;BME280;67944;0.000;0.000;2024-02-26T09:10:12;98988.03;;;21.98;35.45
78625;BME280;67944;0.000;0.000;2024-02-26T09:12:38;98986.41;;;21.97;35.72
78625;BME280;67944;0.000;0.000;2024-02-26T09:15:06;98984.34;;;21.99;35.60
78625;BME280;67944;0.000;0.000;2024-02-26T09:17:32;98979.06;;;21.99;35.89
78625;BME280;67944;0.000;0.000;2024-02-26T09:19:58;98979.88;;;22.00;35.76
78625;BME280;67944;0.000;0.000;2024-02-26T09:22:23;98987.81;;;22.00;35.68
78625;BME280;67944;0.000;0.000;2024-02-26T09:24:49;98988.84;;;21.99;35.63
78625;BME280;67944;0.000;0.000;2024-02-26T09:27:16;98987.00;;;21.99;35.49
78625;BME280;67944;0.000;0.000;2024-02-26T09:29:42;98996.63;;;22.00;35.79
78625;BME280;67944;0.000;0.000;2024-02-26T09:32:08;98995.56;;;22.01;35.76
78625;BME280;67944;0.000;0.000;2024-02-26T09:34:33;98994.78;;;22.01;35.95
78625;BME280;67944;0.000;0.000;2024-02-26T09:36:59;99007.22;;;22.00;35.80
78625;BME280;67944;0.000;0.000;2024-02-26T09:39:25;99015.97;;;22.01;35.37
78625;BME280;67944;0.000;0.000;2024-02-26T09:41:51;99015.16;;;22.00;35.90
78625;BME280;67944;0.000;0.000;2024-02-26T09:44:19;99014.13;;;22.01;35.89
78625;BME280;67944;0.000;0.000;2024-02-26T09:46:47;99009.88;;;22.00;35.95
78625;BME280;67944;0.000;0.000;2024-02-26T09:49:15;99010.69;;;22.01;36.14
78625;BME280;67944;0.000;0.000;2024-02-26T09:51:41;99016.78;;;22.01;35.57
78625;BME280;67944;0.000;0.000;2024-02-26T09:54:09;99019.44;;;22.01;35.87
78625;BME280;67944;0.000;0.000;2024-02-26T09:56:39;99018.41;;;22.02;35.93
78625;BME280;67944;0.000;0.000;2024-02-26T09:59:11;99020.03;;;22.03;36.07
78625;BME280;67944;0.000;0.000;2024-02-26T10:01:42;99020.84;;;22.04;35.92
78625;BME280;67944;0.000;0.000;2024-02-26T10:04:09;99027.97;;;22.03;36.08
78625;BME280;67944;0.000;0.000;2024-02-26T10:06:37;99030.63;;;22.03;36.08
78625;BME280;67944;0.000;0.000;2024-02-26T10:09:03;99042.03;;;22.04;36.20
78625;BME280;67944;0.000;0.000;2024-02-26T10:11:32;99033.88;;;22.05;35.94
78625;BME280;67944;0.000;0.000;2024-02-26T10:13:57;99022.47;;;22.05;36.00
78625;BME280;67944;0.000;0.000;2024-02-26T10:16:23;99020.41;;;22.07;36.07
78625;BME280;67944;0.000;0.000;2024-02-26T10:18:53;99037.09;;;22.07;36.01
78625;BME280;67944;0.000;0.000;2024-02-26T10:21:22;99029.97;;;22.08;36.37
78625;BME280;67944;0.000;0.000;2024-02-26T10:23:49;99028.91;;;22.09;35.96
78625;BME280;67944;0.000;0.000;2024-02-26T10:26:15;99030.78;;;22.08;36.06
78625;BME280;67944;0.000;0.000;2024-02-26T10:28:42;99032.38;;;22.09;36.17
78625;BME280;67944;0.000;0.000;2024-02-26T10:31:09;99035.00;;;22.09;36.02
78625;BME280;67944;0.000;0.000;2024-02-26T10:33:35;99029.72;;;22.09;36.20
78625;BME280;67944;0.000;0.000;2024-02-26T10:36:07;99036.63;;;22.10;36.19
78625;BME280;67944;0.000;0.000;2024-02-26T10:38:35;99041.94;;;22.10;36.17
78625;BME280;67944;0.000;0.000;2024-02-26T10:41:05;99030.28;;;22.11;36.13
78625;BME280;67944;0.000;0.000;2024-02-26T10:43:31;99035.81;;;22.10;35.89
78625;BME280;67944;0.000;0.000;2024-02-26T10:45:57;99036.41;;;22.12;36.09
78625;BME280;67944;0.000;0.000;2024-02-26T10:48:23;99033.75;;;22.12;36.25
78625;BME280;67944;0.000;0.000;2024-02-26T10:50:49;99038.84;;;22.13;36.38
78625;BME280;67944;0.000;0.000;2024-02-26T10:53:22;99046.78;;;22.13;36.39
78625;BME280;67944;0.000;0.000;2024-02-26T10:55:53;99051.06;;;22.14;36.53
78625;BME280;67944;0.000;0.000;2024-02-26T10:58:20;99043.09;;;22.14;36.38
78625;BME280;67944;0.000;0.000;2024-02-26T11:00:49;99054.53;;;22.15;36.43
78625;BME280;67944;0.000;0.000;2024-02-26T11:03:16;99050.84;;;22.16;36.11
78625;BME280;67944;0.000;0.000;2024-02-26T11:05:44;99056.16;;;22.16;36.25
78625;BME280;67944;0.000;0.000;2024-02-26T11:08:11;99055.13;;;22.17;36.26
78625;BME280;67944;0.000;0.000;2024-02-26T11:10:37;99057.75;;;22.17;36.38
78625;BME280;67944;0.000;0.000;2024-02-26T11:13:05;99059.38;;;22.18;36.23
78625;BME280;67944;0.000;0.000;2024-02-26T11:15:32;99051.44;;;22.18;36.43
78625;BME280;67944;0.000;0.000;2024-02-26T11:17:59;99055.69;;;22.19;36.12
78625;BME280;67944;0.000;0.000;2024-02-26T11:20:28;99060.78;;;22.20;36.30
78625;BME280;67944;0.000;0.000;2024-02-26T11:22:55;99069.56;;;22.21;36.25
78625;BME280;67944;0.000;0.000;2024-02-26T11:25:21;99058.94;;;22.21;36.35
78625;BME280;67944;0.000;0.000;2024-02-26T11:27:54;99068.75;;;22.20;36.03
78625;BME280;67944;0.000;0.000;2024-02-26T11:30:26;99058.94;;;22.21;36.27
78625;BME280;67944;0.000;0.000;2024-02-26T11:32:52;99065.88;;;22.22;36.10
78625;BME280;67944;0.000;0.000;2024-02-26T11:35:19;99071.75;;;22.24;36.27
78625;BME280;67944;0.000;0.000;2024-02-26T11:37:54;99063.81;;;22.24;36.15
78625;BME280;67944;0.000;0.000;2024-02-26T11:40:23;99063.81;;;22.24;36.00
78625;BME280;67944;0.000;0.000;2024-02-26T11:42:50;99069.91;;;22.25;36.04
78625;BME280;67944;0.000;0.000;2024-02-26T11:48:28;99057.25;;;22.27;36.05
78625;BME280;67944;0.000;0.000;2024-02-26T11:50:57;99061.50;;;22.28;36.15
78625;BME280;67944;0.000;0.000;2024-02-26T11:53:28;99068.44;;;22.29;36.13
78625;BME280;67944;0.000;0.000;2024-02-26T11:56:19;99072.72;;;22.30;36.19
78625;BME280;67944;0.000;0.000;2024-02-26T11:58:46;99072.72;;;22.30;35.95
78625;BME280;67944;0.000;0.000;2024-02-26T12:01:47;99075.09;;;22.31;36.32
78625;BME280;67944;0.000;0.000;2024-02-26T12:06:51;99075.69;;;22.33;35.99
78625;BME280;67944;0.000;0.000;2024-02-26T12:09:36;99076.50;;;22.34;36.17
78625;BME280;67944;0.000;0.000;2024-02-26T12:12:07;99083.44;;;22.35;36.05
78625;BME280;67944;0.000;0.000;2024-02-26T12:14:35;99077.09;;;22.36;36.04
78625;BME280;67944;0.000;0.000;2024-02-26T12:17:03;99075.03;;;22.38;36.18
78625;BME280;67944;0.000;0.000;2024-02-26T12:19:31;99077.69;;;22.38;36.26
78625;BME280;67944;0.000;0.000;2024-02-26T12:21:56;99076.88;;;22.37;36.42
78625;BME280;67944;0.000;0.000;2024-02-26T12:24:22;99083.56;;;22.40;36.37
78625;BME280;67944;0.000;0.000;2024-02-26T12:26:47;99080.69;;;22.41;36.14
78625;BME280;67944;0.000;0.000;2024-02-26T12:29:14;99082.53;;;22.41;36.20
78625;BME280;67944;0.000;0.000;2024-02-26T12:31:41;99079.06;;;22.40;36.27
78625;BME280;67944;0.000;0.000;2024-02-26T12:34:08;99084.97;;;22.42;36.26
78625;BME280;67944;0.000;0.000;2024-02-26T12:36:35;99083.94;;;22.43;36.41
78625;BME280;67944;0.000;0.000;2024-02-26T12:39:03;99095.34;;;22.44;36.06
78625;BME280;67944;0.000;0.000;2024-02-26T12:41:31;99092.25;;;22.47;36.28
78625;BME280;67944;0.000;0.000;2024-02-26T12:43:57;99100.22;;;22.47;36.05
78625;BME280;67944;0.000;0.000;2024-02-26T12:46:23;99097.34;;;22.48;36.04
78625;BME280;67944;0.000;0.000;2024-02-26T12:48:49;99100.00;;;22.48;36.39
78625;BME280;67944;0.000;0.000;2024-02-26T12:51:16;99102.41;;;22.50;36.25
78625;BME280;67944;0.000;0.000;2024-02-26T12:53:44;99101.63;;;22.49;36.40
78625;BME280;67944;0.000;0.000;2024-02-26T12:56:11;99098.97;;;22.49;36.34
78625;BME280;67944;0.000;0.000;2024-02-26T12:58:40;99098.72;;;22.51;36.34
78625;BME280;67944;0.000;0.000;2024-02-26T13:01:07;99102.19;;;22.51;35.98
78625;BME280;67944;0.000;0.000;2024-02-26T13:03:39;99096.88;;;22.51;36.44
78625;BME280;67944;0.000;0.000;2024-02-26T13:06:05;99092.94;;;22.54;36.63
78625;BME280;67944;0.000;0.000;2024-02-26T13:08:31;99099.88;;;22.55;36.22
78625;BME280;67944;0.000;0.000;2024-02-26T13:10:59;99098.84;;;22.56;36.18